createdAt,value
2022-11-27T00:00:33.605Z,81.59
2022-11-27T00:03:36.447Z,80.99
2022-11-27T00:06:41.976Z,81.97
2022-11-27T00:09:46.015Z,81.71
2022-11-27T00:12:49.669Z,82.46
2022-11-27T00:15:52.385Z,81.71
2022-11-27T00:18:56.266Z,81.39
2022-11-27T00:21:59.837Z,82.24
2022-11-27T00:25:04.063Z,82.74
2022-11-27T00:28:07.640Z,82.62
2022-11-27T00:31:15.224Z,82.32
2022-11-27T00:34:18.869Z,82.11
2022-11-27T00:37:21.576Z,82.21
2022-11-27T00:40:26.583Z,82.00
2022-11-27T00:43:29.300Z,81.60
2022-11-27T00:46:35.933Z,81.77
2022-11-27T00:49:38.801Z,81.86
2022-11-27T00:52:42.530Z,81.69
2022-11-27T00:55:49.180Z,82.24
2022-11-27T00:58:52.693Z,82.08
2022-11-27T01:05:17.209Z,82.31
2022-11-27T01:08:21.811Z,82.03
2022-11-27T01:11:28.054Z,82.44
2022-11-27T01:14:32.224Z,82.90
2022-11-27T01:17:36.198Z,82.65
2022-11-27T01:20:41.117Z,82.39
2022-11-27T01:23:44.046Z,82.25
2022-11-27T01:26:49.491Z,82.40
2022-11-27T01:29:52.344Z,82.21
2022-11-27T01:32:56.342Z,81.86
2022-11-27T01:36:00.890Z,81.59
2022-11-27T01:39:05.575Z,82.53
2022-11-27T01:42:12.476Z,82.41
2022-11-27T01:45:16.950Z,82.05
2022-11-27T01:48:20.931Z,82.07
2022-11-27T01:51:24.209Z,82.00
2022-11-27T01:54:31.036Z,82.04
2022-11-27T01:57:42.558Z,82.20
2022-11-27T02:00:45.340Z,82.41
2022-11-27T02:03:49.385Z,82.04
2022-11-27T02:06:52.257Z,81.65
2022-11-27T02:09:56.452Z,82.34
2022-11-27T02:13:04.325Z,81.86
2022-11-27T02:16:18.508Z,82.27
2022-11-27T02:19:36.398Z,82.02
2022-11-27T02:22:53.233Z,81.74
2022-11-27T02:26:19.730Z,81.54
2022-11-27T02:29:26.618Z,82.37
2022-11-27T02:32:36.399Z,82.06
2022-11-27T02:35:47.983Z,81.81
2022-11-27T02:38:56.313Z,81.96
2022-11-27T02:42:04.386Z,81.52
2022-11-27T02:45:13.129Z,81.80
2022-11-27T02:48:20.794Z,81.92
2022-11-27T02:51:27.873Z,82.03
2022-11-27T02:54:33.460Z,81.32
2022-11-27T02:57:38.729Z,82.19
2022-11-27T03:00:45.714Z,81.80
2022-11-27T03:03:54.442Z,80.93
2022-11-27T03:07:03.878Z,80.12
2022-11-27T03:10:12.981Z,81.68
2022-11-27T03:13:17.115Z,81.59
2022-11-27T03:16:31.415Z,81.45
2022-11-27T03:19:43.946Z,81.27
2022-11-27T03:22:47.966Z,81.75
2022-11-27T03:25:50.651Z,81.12
2022-11-27T03:28:56.180Z,80.88
2022-11-27T03:32:03.251Z,81.17
2022-11-27T03:35:09.738Z,80.21
2022-11-27T03:38:13.858Z,81.11
2022-11-27T03:41:25.623Z,80.29
2022-11-27T03:44:37.787Z,80.03
2022-11-27T03:47:56.358Z,80.13
2022-11-27T03:51:10.647Z,79.90
2022-11-27T03:54:26.273Z,79.59
2022-11-27T03:57:34.846Z,80.43
2022-11-27T04:00:45.011Z,81.03
2022-11-27T04:03:49.113Z,80.62
2022-11-27T04:06:53.171Z,80.47
2022-11-27T04:09:55.889Z,80.22
2022-11-27T04:12:59.922Z,79.59
2022-11-27T04:16:03.077Z,80.92
2022-11-27T04:19:09.368Z,80.43
2022-11-27T04:22:13.267Z,79.89
2022-11-27T04:25:16.019Z,80.41
2022-11-27T04:28:20.397Z,79.71
2022-11-27T04:31:23.221Z,80.01
2022-11-27T04:34:28.650Z,79.63
2022-11-27T04:37:32.643Z,79.97
2022-11-27T04:43:58.409Z,79.93
2022-11-27T04:47:01.237Z,80.32
2022-11-27T04:50:07.673Z,80.18
2022-11-27T04:53:10.567Z,78.21
2022-11-27T04:56:14.530Z,79.28
2022-11-27T04:59:17.273Z,79.85
2022-11-27T05:02:21.212Z,79.49
2022-11-27T05:05:25.268Z,79.92
2022-11-27T05:08:31.410Z,79.70
2022-11-27T05:11:35.960Z,80.11
2022-11-27T05:14:38.904Z,80.07
2022-11-27T05:17:41.819Z,80.58
2022-11-27T05:20:45.915Z,80.25
2022-11-27T05:23:48.736Z,80.38
2022-11-27T05:26:51.513Z,80.07
2022-11-27T05:29:55.473Z,79.86
2022-11-27T05:32:59.512Z,79.28
2022-11-27T05:36:03.578Z,79.19
2022-11-27T05:39:09.177Z,79.77
2022-11-27T05:42:11.920Z,79.31
2022-11-27T05:45:15.868Z,79.72
2022-11-27T05:48:18.571Z,79.50
2022-11-27T05:51:23.982Z,79.65
2022-11-27T05:54:27.987Z,79.40
2022-11-27T05:57:30.933Z,79.38
2022-11-27T06:00:34.910Z,79.50
2022-11-27T06:03:38.980Z,79.72
2022-11-27T06:06:44.374Z,79.78
2022-11-27T06:09:47.036Z,79.29
2022-11-27T06:12:51.000Z,79.05
2022-11-27T06:15:54.957Z,79.65
2022-11-27T06:18:57.716Z,79.56
2022-11-27T06:22:01.777Z,79.89
2022-11-27T06:25:04.761Z,79.24
2022-11-27T06:28:07.521Z,78.71
2022-11-27T06:31:17.525Z,79.46
2022-11-27T06:34:20.909Z,78.99
2022-11-27T06:37:26.274Z,78.87
2022-11-27T06:40:28.991Z,78.98
2022-11-27T06:43:32.974Z,78.78
2022-11-27T06:46:35.801Z,78.71
2022-11-27T06:49:38.495Z,78.86
2022-11-27T06:52:43.842Z,78.97
2022-11-27T06:55:46.561Z,78.60
2022-11-27T06:58:52.423Z,79.05
2022-11-27T07:01:56.445Z,79.11
2022-11-27T07:04:59.172Z,78.77
2022-11-27T07:08:04.559Z,78.68
2022-11-27T07:11:09.129Z,78.70
2022-11-27T07:14:13.153Z,78.68
2022-11-27T07:17:15.845Z,78.69
2022-11-27T07:20:18.599Z,78.58
2022-11-27T07:23:23.193Z,78.40
2022-11-27T07:26:29.009Z,78.19
2022-11-27T07:29:31.760Z,77.15
2022-11-27T07:32:34.485Z,77.90
2022-11-27T07:35:37.301Z,77.69
2022-11-27T07:38:41.788Z,78.44
2022-11-27T07:41:44.539Z,78.72
2022-11-27T07:44:47.301Z,78.14
2022-11-27T07:47:50.013Z,77.34
2022-11-27T07:50:54.187Z,78.32
2022-11-27T07:53:58.572Z,78.34
2022-11-27T08:00:24.511Z,78.48
2022-11-27T08:03:27.286Z,78.36
2022-11-27T08:06:31.629Z,78.13
2022-11-27T08:09:35.701Z,77.64
2022-11-27T08:12:39.721Z,76.92
2022-11-27T08:15:42.516Z,76.31
2022-11-27T08:18:45.280Z,76.61
2022-11-27T08:21:47.998Z,76.71
2022-11-27T08:24:52.761Z,74.76
2022-11-27T08:27:56.766Z,75.02
2022-11-27T08:31:02.026Z,76.08
2022-11-27T08:34:04.778Z,76.15
2022-11-27T08:37:09.666Z,75.75
2022-11-27T08:40:13.906Z,75.19
2022-11-27T08:43:16.685Z,75.06
2022-11-27T08:46:20.804Z,75.65
2022-11-27T08:49:23.718Z,75.50
2022-11-27T08:52:27.665Z,75.55
2022-11-27T08:55:31.754Z,74.64
2022-11-27T08:58:35.803Z,73.82
2022-11-27T09:01:38.677Z,74.55
2022-11-27T09:04:43.003Z,73.25
2022-11-27T09:07:45.859Z,72.82
2022-11-27T09:10:49.972Z,71.64
2022-11-27T09:13:52.835Z,72.97
2022-11-27T09:16:56.938Z,71.61
2022-11-27T09:20:00.930Z,70.80
2022-11-27T09:23:03.697Z,70.23
2022-11-27T09:26:11.106Z,70.65
2022-11-27T09:29:15.087Z,70.81
2022-11-27T09:32:18.368Z,69.51
2022-11-27T09:35:22.823Z,69.80
2022-11-27T09:38:25.872Z,70.18
2022-11-27T09:41:45.441Z,69.41
2022-11-27T09:44:53.100Z,65.34
2022-11-27T09:48:01.577Z,67.23
2022-11-27T09:51:10.404Z,66.05
2022-11-27T09:54:20.870Z,64.74
2022-11-27T09:57:29.398Z,63.79
2022-11-27T10:00:33.580Z,62.69
2022-11-27T10:03:37.473Z,62.72
2022-11-27T10:06:51.883Z,61.35
2022-11-27T10:10:08.693Z,61.48
2022-11-27T10:13:28.478Z,61.09
2022-11-27T10:16:44.068Z,56.95
2022-11-27T10:19:55.718Z,57.78
2022-11-27T10:23:06.056Z,56.52
2022-11-27T10:26:16.871Z,58.48
2022-11-27T10:29:35.817Z,57.66
2022-11-27T10:32:55.745Z,53.79
2022-11-27T10:36:00.933Z,54.30
2022-11-27T10:39:05.665Z,54.75
2022-11-27T10:42:15.130Z,54.58
2022-11-27T10:45:24.348Z,53.35
2022-11-27T10:48:28.442Z,52.58
2022-11-27T10:51:34.986Z,53.92
2022-11-27T10:54:41.959Z,52.75
2022-11-27T10:58:11.197Z,52.66
2022-11-27T11:01:18.649Z,52.11
2022-11-27T11:04:37.601Z,52.40
2022-11-27T11:07:57.401Z,50.78
2022-11-27T11:11:02.204Z,51.79
2022-11-27T11:14:05.189Z,55.04
2022-11-27T11:17:18.585Z,55.72
2022-11-27T11:20:23.341Z,56.47
2022-11-27T11:23:35.043Z,55.50
2022-11-27T11:26:42.634Z,56.33
2022-11-27T11:29:50.031Z,56.43
2022-11-27T11:33:03.457Z,53.79
2022-11-27T11:36:11.285Z,53.63
2022-11-27T11:39:25.235Z,54.72
2022-11-27T11:42:29.864Z,53.86
2022-11-27T11:45:36.069Z,53.33
2022-11-27T11:48:40.689Z,52.84
2022-11-27T11:51:58.544Z,53.07
2022-11-27T11:55:10.453Z,54.47
2022-11-27T11:58:38.068Z,55.08
2022-11-27T12:05:37.876Z,56.80
2022-11-27T12:08:55.096Z,57.94
2022-11-27T12:12:06.027Z,59.14
2022-11-27T12:15:21.383Z,59.45
2022-11-27T12:18:32.253Z,60.25
2022-11-27T12:21:48.857Z,60.41
2022-11-27T12:25:02.295Z,60.52
2022-11-27T12:28:22.491Z,60.98
2022-11-27T12:31:43.430Z,60.31
2022-11-27T12:35:01.182Z,59.95
2022-11-27T12:38:25.239Z,60.68
2022-11-27T12:41:46.674Z,60.41
2022-11-27T12:44:57.942Z,60.57
2022-11-27T12:48:08.289Z,60.79
2022-11-27T12:51:16.896Z,60.54
2022-11-27T12:54:27.728Z,61.41
2022-11-27T12:57:37.958Z,61.85
2022-11-27T13:00:44.948Z,61.79
2022-11-27T13:04:02.599Z,60.49
2022-11-27T13:07:10.768Z,61.48
2022-11-27T13:10:23.594Z,60.58
2022-11-27T13:13:31.840Z,60.80
2022-11-27T13:16:39.141Z,60.65
2022-11-27T13:19:47.133Z,60.88
2022-11-27T13:22:51.904Z,61.19
2022-11-27T13:25:57.469Z,60.94
2022-11-27T13:29:05.544Z,61.30
2022-11-27T13:32:11.324Z,62.17
2022-11-27T13:35:22.882Z,62.87
2022-11-27T13:38:28.859Z,62.09
2022-11-27T13:41:38.651Z,62.69
2022-11-27T13:44:46.104Z,62.94
2022-11-27T13:47:51.322Z,63.50
2022-11-27T13:50:55.409Z,63.84
2022-11-27T13:54:13.558Z,63.79
2022-11-27T13:57:20.809Z,65.13
2022-11-27T14:03:56.362Z,65.34
2022-11-27T14:07:07.462Z,65.85
2022-11-27T14:10:14.628Z,65.55
2022-11-27T14:13:24.891Z,66.74
2022-11-27T14:16:32.502Z,67.48
2022-11-27T14:19:39.642Z,68.18
2022-11-27T14:23:10.394Z,68.43
2022-11-27T14:26:22.092Z,67.38
2022-11-27T14:29:31.791Z,68.08
2022-11-27T14:32:38.345Z,67.89
2022-11-27T14:35:43.087Z,68.55
2022-11-27T14:38:48.850Z,68.33
2022-11-27T14:41:59.151Z,68.81
2022-11-27T14:45:05.468Z,69.46
2022-11-27T14:48:08.333Z,69.07
2022-11-27T14:51:18.305Z,69.25
2022-11-27T14:54:27.839Z,69.29
2022-11-27T14:57:31.961Z,69.92
2022-11-27T15:00:37.381Z,69.82
2022-11-27T15:03:41.055Z,69.78
2022-11-27T15:06:48.528Z,69.69
2022-11-27T15:09:54.537Z,70.59
2022-11-27T15:12:58.908Z,69.62
2022-11-27T15:16:07.348Z,69.79
2022-11-27T15:19:17.723Z,70.59
2022-11-27T15:22:21.139Z,70.14
2022-11-27T15:25:36.923Z,69.83
2022-11-27T15:28:43.261Z,69.44
2022-11-27T15:31:52.373Z,68.76
2022-11-27T15:34:56.007Z,69.57
2022-11-27T15:38:05.521Z,69.35
2022-11-27T15:41:20.896Z,69.55
2022-11-27T15:44:25.632Z,69.99
2022-11-27T15:47:33.328Z,69.18
2022-11-27T15:50:36.033Z,70.00
2022-11-27T15:53:38.884Z,69.44
2022-11-27T15:56:41.909Z,69.59
2022-11-27T15:59:44.698Z,69.89
2022-11-27T16:02:48.851Z,69.50
2022-11-27T16:05:51.646Z,70.66
2022-11-27T16:08:55.906Z,69.92
2022-11-27T16:11:58.647Z,70.38
2022-11-27T16:15:02.745Z,70.27
2022-11-27T16:18:07.129Z,70.59
2022-11-27T16:21:13.086Z,71.36
2022-11-27T16:24:16.544Z,71.44
2022-11-27T16:27:20.544Z,71.53
2022-11-27T16:30:23.292Z,72.08
2022-11-27T16:33:29.132Z,70.91
2022-11-27T16:36:31.977Z,71.97
2022-11-27T16:39:34.829Z,71.71
2022-11-27T16:42:38.941Z,72.06
2022-11-27T16:45:41.751Z,71.42
2022-11-27T16:48:47.481Z,72.19
2022-11-27T16:51:51.468Z,72.20
2022-11-27T16:54:55.677Z,71.99
2022-11-27T16:57:59.703Z,71.52
2022-11-27T17:01:05.709Z,72.23
2022-11-27T17:04:16.552Z,71.46
2022-11-27T17:07:19.330Z,72.12
2022-11-27T17:10:23.323Z,72.69
2022-11-27T17:13:26.183Z,72.55
2022-11-27T17:16:30.898Z,72.33
2022-11-27T17:19:35.141Z,71.02
2022-11-27T17:22:38.016Z,72.88
2022-11-27T17:25:40.901Z,72.64
2022-11-27T17:28:43.662Z,72.15
2022-11-27T17:31:46.675Z,72.39
2022-11-27T17:34:51.007Z,72.82
2022-11-27T17:37:54.958Z,72.53
2022-11-27T17:41:01.388Z,72.64
2022-11-27T17:44:05.752Z,73.08
2022-11-27T17:47:09.725Z,72.94
2022-11-27T17:50:14.203Z,72.63
2022-11-27T17:53:18.231Z,72.33
2022-11-27T17:56:22.512Z,72.69
2022-11-27T18:02:47.195Z,73.23
2022-11-27T18:05:52.797Z,71.98
2022-11-27T18:08:57.292Z,72.15
2022-11-27T18:12:01.298Z,72.66
2022-11-27T18:15:04.398Z,72.20
2022-11-27T18:18:07.675Z,72.15
2022-11-27T18:21:18.011Z,71.59
2022-11-27T18:24:24.381Z,71.93
2022-11-27T18:27:27.529Z,70.99
2022-11-27T18:30:30.319Z,71.23
2022-11-27T18:33:33.060Z,70.13
2022-11-27T18:36:38.356Z,70.67
2022-11-27T18:39:44.349Z,72.22
2022-11-27T18:42:48.488Z,71.46
2022-11-27T18:45:53.159Z,70.72
2022-11-27T18:48:55.903Z,70.40
2022-11-27T18:51:59.995Z,70.50
2022-11-27T18:55:03.774Z,70.38
2022-11-27T18:58:07.742Z,69.98
2022-11-27T19:01:12.958Z,70.47
2022-11-27T19:04:17.287Z,71.07
2022-11-27T19:07:22.821Z,71.08
2022-11-27T19:10:25.604Z,71.63
2022-11-27T19:13:31.023Z,71.96
2022-11-27T19:16:36.151Z,71.48
2022-11-27T19:19:55.507Z,71.39
2022-11-27T19:22:59.762Z,71.88
2022-11-27T19:26:07.112Z,72.62
2022-11-27T19:32:32.923Z,71.84
2022-11-27T19:35:38.201Z,71.38
2022-11-27T19:38:43.917Z,71.44
2022-11-27T19:41:46.730Z,71.67
2022-11-27T19:44:50.721Z,71.33
2022-11-27T19:47:54.977Z,70.91
2022-11-27T19:51:02.544Z,70.65
2022-11-27T19:54:10.554Z,70.55
2022-11-27T19:57:13.647Z,70.39
2022-11-27T20:00:17.137Z,69.94
2022-11-27T20:03:19.933Z,69.79
2022-11-27T20:06:26.701Z,70.23
2022-11-27T20:09:32.068Z,70.34
2022-11-27T20:12:38.043Z,69.74
2022-11-27T20:15:41.051Z,69.73
2022-11-27T20:18:44.147Z,70.03
2022-11-27T20:21:46.963Z,71.28
2022-11-27T20:28:12.744Z,70.52
2022-11-27T20:31:18.143Z,70.68
2022-11-27T20:34:24.010Z,71.63
2022-11-27T20:37:26.825Z,70.44
2022-11-27T20:40:34.868Z,70.01
2022-11-27T20:43:38.054Z,70.94
2022-11-27T20:46:42.326Z,70.77
2022-11-27T20:49:46.377Z,71.09
2022-11-27T20:52:49.095Z,70.29
2022-11-27T20:55:54.456Z,70.63
2022-11-27T20:58:57.835Z,70.13
2022-11-27T21:02:01.479Z,69.79
2022-11-27T21:05:04.582Z,69.53
2022-11-27T21:08:08.566Z,69.67
2022-11-27T21:11:15.466Z,69.89
2022-11-27T21:14:20.123Z,70.46
2022-11-27T21:17:24.204Z,69.87
2022-11-27T21:20:27.004Z,70.56
2022-11-27T21:23:30.395Z,69.27
2022-11-27T21:26:35.233Z,70.10
2022-11-27T21:29:39.790Z,69.34
2022-11-27T21:32:43.942Z,69.86
2022-11-27T21:35:46.758Z,69.97
2022-11-27T21:38:51.153Z,69.98
2022-11-27T21:41:56.727Z,69.69
2022-11-27T21:45:01.097Z,69.87
2022-11-27T21:48:06.364Z,70.32
2022-11-27T21:51:12.762Z,69.19
2022-11-27T21:54:17.189Z,69.49
2022-11-27T21:57:21.650Z,69.04
2022-11-27T22:00:25.771Z,69.99
2022-11-27T22:03:28.577Z,70.59
2022-11-27T22:06:38.315Z,69.39
2022-11-27T22:09:41.053Z,70.47
2022-11-27T22:13:06.218Z,70.87
2022-11-27T22:16:10.322Z,69.83
2022-11-27T22:19:15.344Z,69.62
2022-11-27T22:22:18.146Z,70.59
2022-11-27T22:25:22.168Z,70.40
2022-11-27T22:28:26.296Z,70.54
2022-11-27T22:31:32.263Z,70.51
2022-11-27T22:34:36.373Z,70.00
2022-11-27T22:37:41.025Z,69.84
2022-11-27T22:40:44.138Z,70.33
2022-11-27T22:43:49.843Z,69.80
2022-11-27T22:46:52.643Z,69.60
2022-11-27T22:49:56.703Z,70.83
2022-11-27T22:52:59.387Z,69.89
2022-11-27T22:56:07.622Z,70.23
2022-11-27T23:02:39.509Z,70.41
2022-11-27T23:05:46.454Z,70.02
2022-11-27T23:08:49.936Z,70.26
2022-11-27T23:11:54.123Z,70.12
2022-11-27T23:14:58.217Z,69.19
2022-11-27T23:18:02.197Z,69.55
2022-11-27T23:21:07.542Z,70.08
2022-11-27T23:24:15.075Z,69.80
2022-11-27T23:27:19.069Z,69.79
2022-11-27T23:30:23.120Z,69.57
2022-11-27T23:33:27.086Z,69.75
2022-11-27T23:36:30.266Z,70.10
2022-11-27T23:39:34.232Z,69.67
2022-11-27T23:42:38.212Z,69.96
2022-11-27T23:45:42.542Z,70.45
2022-11-27T23:48:46.676Z,70.57
2022-11-27T23:51:49.372Z,69.84
2022-11-27T23:54:53.724Z,69.59
2022-11-27T23:57:56.424Z,69.59
